Lavallette, NJ

5:39 AM EST on February 07, 2016 (GMT -0500)
Bell Crest | | Change Station
CLOSE
Current Station
Personal Weather Station
Location: Toms River, NJ
Elevation: 26 ft
Nearby Weather Stations

Elev 26 ft 39.98 °N, 74.13 °W | Updated 3 minutes ago

Mostly Cloudy
Mostly Cloudy
25.1 °F
Feels Like 25 °F
N
0.0
Wind Variable Wind from West
Gusts 1.0 mph

Today
High -- | Low -- °F
--% Chance of Precip.
Yesterday
High -- | Low -- °F
Precip. -- in
Pressure 30.21 in
Visibility 10.0 miles
Clouds Clear
Windchill 25 °F
Dew Point 24 °F
Humidity 94%
Rainfall 0.00 in
Snow Depth Not available.
6:59 AM 5:22 PM
Waning Crescent, 2% visible
METAR KMJX 071035Z AUTO 00000KT 10SM CLR M07/M09 A3021 RMK AO1
Pressure 30.21 in
Visibility 10.0 miles
Clouds Clear
Windchill 25 °F
Dew Point 24 °F
Humidity 94%
Rainfall 0.00 in
Snow Depth Not available.
6:59 AM 5:22 PM
Waning Crescent, 2% visible
METAR KMJX 071035Z AUTO 00000KT 10SM CLR M07/M09 A3021 RMK AO1

10-Day Weather Forecast

Almanac

Astronomy

Feb. 07, 2016 Rise Set
Actual Time
Civil Twilight
Nautical Twilight
Astronomical Twilight
Moon
Length of Visible Light
Length of Day
Tomorrow will be .
, % of the Moon is Illuminated

Today's Extremes

State Highs State Lows

Community

WunderPhotos

Upload Photos

1,891,171 photos uploaded!

WunderBlog® & News

Nearby

Air Quality

  Air Quality AQ Index Pollutant
Not available.

Snow Depth

Station Depth Elevation

Earthquake Activity

City Distance Mag. Time & Date
Minimum magnitude displayed is 2.5.

Coastal Water Temperatures

Place Temperature

Stations

Nearby Weather Stations

Station Location Temp. Windchill Dew Point Humidity Wind Precip. Elev Updated Type
                   

Watches & Warnings

There are currently no watches in effect.